North Hampton, Illinois
Current Conditions -  °F | °C
As of 6:35 PM on Friday 24 Oct 2014 (Local Time) from KC75 Reporting Station
Clear Clear  
Wind Chill: 58°   Ceiling: Unl
Heat Index: 58°   Visibility: 10mi
Dew Point: 47°   Wind: 3mph
Humidity: 66%   Direction: 150°SSE
Pressure: 29.95"   Gusts: NA
Location:  40.915°N, 89.5303°W
Report Text: KC75 242335Z AUTO 15003KT 10SM CLR 14/08 A2995 RMK AO2 T01430081
Loading
Personal Weather Stations






























Interactive Weather Map
Tropical Storm Tracking
New forecast layout! Learn more

10-Day Weather Forecast

Advertisements
Track Severe Weather on mobile